KGUP/GUP METAR and TAF weather

Enter ICAO airport designator
Station Type Date Time Source
KGUP METAR 2019/09/20 20:53 UTC NOAA

KGUP 202053Z AUTO 21024G33KT 10SM CLR 26/M03 A3005 RMK AO2 PK WND 24035/1955 SLP033 60000 T02561028 56011


Station Type Date Time Source
KGUP Decoded METAR 2019/09/20 20:53 UTC NOAA

GALLUP MUNICIPAL AIRPORT, NM, United States (KGUP) 35-31N 108-47W 1971M
Sep 20, 2019 - 04:53 PM EDT / 2019.09.20 2053 UTC
Wind: from the SSW (210 degrees) at 28 MPH (24 KT) gusting to 38 MPH (33 KT):0
Visibility: 10 mile(s):0
Sky conditions: clear
Temperature: 78.1 F (25.6 C)
Dew Point: 27.0 F (-2.8 C)
Relative Humidity: 15%
Pressure (altimeter): 30.05 in. Hg (1017 hPa)
Pressure tendency: 0.03 inches (1.1 hPa) lower than three hours ago
ob: KGUP 202053Z AUTO 21024G33KT 10SM CLR 26/M03 A3005 RMK AO2 PK WND 24035/1955 SLP033 60000 T02561028 56011
cycle: 21

Station Type Date Time Source
KGUP TAF 2019/09/20 18:22 UTC NOAA

TAF KGUP 201720Z 2018/2118 24025G35KT P6SM SKC
FM210200 24012KT P6SM SKC
FM210500 20006KT P6SM SKC

Example: see airport list